Pagrindinis puslapis
METAR-TAF:

METAR-TAF

Oro uostai :

Akıncı, Turkija

platuma: 40-05N, ilguma: 032-34E, Aukštis: 843 m

Dabartinis oras

Ataskaita buvo paskelbta 39 minutes, ne 23:50 UTC
Vėjas 5 kt iš Šiaurės Vakarų
Temperatūra 0°C
Drėgmė 93%
Slėgis 1017 hPa
Matomumas 10 km arba daugiau
nėra debesų žemiau 1500 m ir nėra kamuolinių lietaus debesų

METAR: LTAE 312350Z 32005KT CAVOK M00/M01 Q1017 NOSIG RMK RWY21 02004KT

Laikas: 03:29 (00:29 UTC)

Prognozė

Ataskaita buvo paskelbta 1 valandą ir 49 minutes, ne 22:40 UTC
Prognozė galioja nuo 01 metu 00 UTC su 01 metu 09 UTC
Vėjas 2 kt nuo kintamojo kryptimis
Matomumas 10 km arba daugiau
nėra debesų žemiau 1500 m ir nėra kamuolinių lietaus debesų

TAF: LTAE 312240Z 0100/0109 VRB02KT CAVOK

Orai ataskaitas ir orų prognozės (METAR, TAF).

turimą stotys yra geltonos ir raudonos taškus žemėlapyje.

Perkelti pele per norėdami pamatyti stoties vardą.

Tada spustelėkite, norėdami matyti oro stebėjimo ir prognozės.

Norėdami pakeisti žemėlapį: spustelėkite ant žalios mygtukų su juodo kryžiaus žemyn,; žalią mygtuką su brūkšneliu, jei norite nutolinti; arba žalių rodyklių gretimoms žemėlapius.


METAR-TAF: